sensor_id;sensor_type;location;lat;lon;timestamp;pressure;altitude;pressure_sealevel;temperature;humidity
15646;BME280;7922;43.622;1.476;2023-04-02T00:00:27;100308.31;;;6.37;93.45
15646;BME280;7922;43.622;1.476;2023-04-02T00:03:05;100350.97;;;6.53;93.37
15646;BME280;7922;43.622;1.476;2023-04-02T00:05:44;100396.97;;;6.78;93.96
15646;BME280;7922;43.622;1.476;2023-04-02T00:08:22;100310.25;;;6.27;93.64
15646;BME280;7922;43.622;1.476;2023-04-02T00:10:58;100348.59;;;6.40;93.55
15646;BME280;7922;43.622;1.476;2023-04-02T00:13:40;100167.31;;;5.40;93.24
15646;BME280;7922;43.622;1.476;2023-04-02T00:16:12;100398.84;;;6.71;93.81
15646;BME280;7922;43.622;1.476;2023-04-02T00:18:45;100365.84;;;6.55;93.26
15646;BME280;7922;43.622;1.476;2023-04-02T00:21:33;100400.66;;;6.69;93.17
15646;BME280;7922;43.622;1.476;2023-04-02T00:24:01;100250.53;;;5.86;93.12
15646;BME280;7922;43.622;1.476;2023-04-02T00:26:40;100365.75;;;6.60;92.96
15646;BME280;7922;43.622;1.476;2023-04-02T00:29:10;100385.78;;;6.68;93.08
15646;BME280;7922;43.622;1.476;2023-04-02T00:31:43;100369.28;;;6.57;92.84
15646;BME280;7922;43.622;1.476;2023-04-02T00:34:17;100170.59;;;5.52;92.66
15646;BME280;7922;43.622;1.476;2023-04-02T00:36:43;100271.75;;;6.23;92.50
15646;BME280;7922;43.622;1.476;2023-04-02T00:39:16;100309.09;;;6.42;92.77
15646;BME280;7922;43.622;1.476;2023-04-02T00:41:43;100337.53;;;6.66;92.67
15646;BME280;7922;43.622;1.476;2023-04-02T00:44:11;100378.47;;;6.83;92.76
15646;BME280;7922;43.622;1.476;2023-04-02T00:46:44;100337.66;;;6.60;92.50
15646;BME280;7922;43.622;1.476;2023-04-02T00:51:50;100229.25;;;6.01;92.19
15646;BME280;7922;43.622;1.476;2023-04-02T00:54:19;100361.06;;;6.74;92.29
15646;BME280;7922;43.622;1.476;2023-04-02T00:56:47;100309.25;;;6.34;93.07
15646;BME280;7922;43.622;1.476;2023-04-02T00:59:28;100402.97;;;6.86;93.18
15646;BME280;7922;43.622;1.476;2023-04-02T01:01:59;100269.38;;;6.11;92.48
15646;BME280;7922;43.622;1.476;2023-04-02T01:04:32;100388.13;;;6.81;93.14
15646;BME280;7922;43.622;1.476;2023-04-02T01:07:00;100368.25;;;6.66;93.41
15646;BME280;7922;43.622;1.476;2023-04-02T01:15:10;100376.84;;;6.75;93.14
15646;BME280;7922;43.622;1.476;2023-04-02T01:20:52;100420.16;;;7.03;92.74
15646;BME280;7922;43.622;1.476;2023-04-02T01:23:33;100419.31;;;7.02;93.00
15646;BME280;7922;43.622;1.476;2023-04-02T01:26:10;100342.38;;;6.44;93.44
15646;BME280;7922;43.622;1.476;2023-04-02T01:29:05;100291.22;;;6.14;93.09
15646;BME280;7922;43.622;1.476;2023-04-02T01:31:33;100432.56;;;6.97;93.06
15646;BME280;7922;43.622;1.476;2023-04-02T01:34:01;100285.03;;;6.17;93.66
15646;BME280;7922;43.622;1.476;2023-04-02T01:44:34;100264.22;;;6.05;93.70
15646;BME280;7922;43.622;1.476;2023-04-02T01:47:09;100191.34;;;5.65;94.02
15646;BME280;7922;43.622;1.476;2023-04-02T01:49:35;100370.84;;;6.69;93.50
15646;BME280;7922;43.622;1.476;2023-04-02T01:52:00;100204.28;;;5.75;93.59
15646;BME280;7922;43.622;1.476;2023-04-02T01:54:25;100261.44;;;6.12;93.07
15646;BME280;7922;43.622;1.476;2023-04-02T01:56:51;100195.50;;;5.78;93.44
15646;BME280;7922;43.622;1.476;2023-04-02T01:59:19;100258.88;;;6.11;93.22
15646;BME280;7922;43.622;1.476;2023-04-02T02:01:48;100414.72;;;7.12;93.84
15646;BME280;7922;43.622;1.476;2023-04-02T02:04:17;100242.22;;;6.09;93.79
15646;BME280;7922;43.622;1.476;2023-04-02T02:06:43;100321.97;;;6.56;94.37
15646;BME280;7922;43.622;1.476;2023-04-02T02:09:16;100363.69;;;6.74;94.17
15646;BME280;7922;43.622;1.476;2023-04-02T02:11:43;100170.34;;;5.65;93.94
15646;BME280;7922;43.622;1.476;2023-04-02T02:14:14;100360.38;;;6.64;94.45
15646;BME280;7922;43.622;1.476;2023-04-02T02:16:40;100364.94;;;6.58;94.75
15646;BME280;7922;43.622;1.476;2023-04-02T02:19:18;100344.03;;;6.48;94.96
15646;BME280;7922;43.622;1.476;2023-04-02T02:21:49;100362.16;;;6.64;94.82
15646;BME280;7922;43.622;1.476;2023-04-02T02:24:22;100353.50;;;6.59;95.03
15646;BME280;7922;43.622;1.476;2023-04-02T02:27:02;100403.69;;;6.93;95.32
15646;BME280;7922;43.622;1.476;2023-04-02T02:29:34;100210.25;;;5.84;94.87
15646;BME280;7922;43.622;1.476;2023-04-02T02:32:01;100368.94;;;6.75;94.74
15646;BME280;7922;43.622;1.476;2023-04-02T02:34:35;100369.00;;;6.72;94.99
15646;BME280;7922;43.622;1.476;2023-04-02T02:37:17;100186.84;;;5.71;95.05
15646;BME280;7922;43.622;1.476;2023-04-02T02:39:50;100255.38;;;6.10;95.03
15646;BME280;7922;43.622;1.476;2023-04-02T02:42:22;100365.78;;;6.58;95.60
15646;BME280;7922;43.622;1.476;2023-04-02T02:44:53;100378.88;;;6.61;95.83
15646;BME280;7922;43.622;1.476;2023-04-02T02:47:24;100191.66;;;5.49;95.88
15646;BME280;7922;43.622;1.476;2023-04-02T02:49:59;100411.00;;;6.79;95.46
15646;BME280;7922;43.622;1.476;2023-04-02T02:52:29;100258.47;;;5.83;95.47
15646;BME280;7922;43.622;1.476;2023-04-02T02:55:00;100425.84;;;6.83;96.27
15646;BME280;7922;43.622;1.476;2023-04-02T02:57:38;100370.50;;;6.41;95.45
15646;BME280;7922;43.622;1.476;2023-04-02T03:00:08;100437.03;;;6.94;96.03
15646;BME280;7922;43.622;1.476;2023-04-02T03:02:35;100264.38;;;5.97;95.63
15646;BME280;7922;43.622;1.476;2023-04-02T03:05:01;100417.09;;;6.81;95.82
15646;BME280;7922;43.622;1.476;2023-04-02T03:07:27;100274.75;;;6.05;95.57
15646;BME280;7922;43.622;1.476;2023-04-02T03:12:28;100434.09;;;7.08;95.83
15646;BME280;7922;43.622;1.476;2023-04-02T03:15:17;100444.63;;;7.09;95.63
15646;BME280;7922;43.622;1.476;2023-04-02T03:20:50;100357.84;;;6.61;95.65
15646;BME280;7922;43.622;1.476;2023-04-02T03:25:51;100441.06;;;7.12;96.37
15646;BME280;7922;43.622;1.476;2023-04-02T03:28:24;100389.16;;;6.73;95.84
15646;BME280;7922;43.622;1.476;2023-04-02T03:30:55;100253.81;;;6.00;95.95
15646;BME280;7922;43.622;1.476;2023-04-02T03:33:27;100308.34;;;6.35;96.17
15646;BME280;7922;43.622;1.476;2023-04-02T03:36:32;100415.00;;;6.96;95.96
15646;BME280;7922;43.622;1.476;2023-04-02T03:39:07;100279.59;;;6.24;96.40
15646;BME280;7922;43.622;1.476;2023-04-02T03:41:40;100414.00;;;7.04;96.60
15646;BME280;7922;43.622;1.476;2023-04-02T03:44:23;100390.66;;;6.85;95.96
15646;BME280;7922;43.622;1.476;2023-04-02T03:47:02;100338.72;;;6.51;95.85
15646;BME280;7922;43.622;1.476;2023-04-02T03:49:49;100419.31;;;7.02;96.55
15646;BME280;7922;43.622;1.476;2023-04-02T03:52:28;100434.09;;;7.08;96.86
15646;BME280;7922;43.622;1.476;2023-04-02T03:54:54;100421.00;;;7.05;96.56
15646;BME280;7922;43.622;1.476;2023-04-02T03:57:35;100466.41;;;7.17;96.80
15646;BME280;7922;43.622;1.476;2023-04-02T04:00:16;100460.19;;;7.20;96.62
15646;BME280;7922;43.622;1.476;2023-04-02T04:02:48;100369.13;;;6.66;96.72
15646;BME280;7922;43.622;1.476;2023-04-02T04:05:22;100453.25;;;7.16;97.10
15646;BME280;7922;43.622;1.476;2023-04-02T04:07:50;100316.16;;;6.38;97.36
15646;BME280;7922;43.622;1.476;2023-04-02T04:10:21;100253.78;;;6.01;96.32
15646;BME280;7922;43.622;1.476;2023-04-02T04:12:49;100233.69;;;5.97;96.67
15646;BME280;7922;43.622;1.476;2023-04-02T04:15:40;100441.81;;;7.17;96.78
15646;BME280;7922;43.622;1.476;2023-04-02T04:18:28;100446.06;;;7.24;96.45
15646;BME280;7922;43.622;1.476;2023-04-02T04:20:57;100254.56;;;6.05;96.49
15646;BME280;7922;43.622;1.476;2023-04-02T04:23:31;100463.63;;;7.23;96.96
15646;BME280;7922;43.622;1.476;2023-04-02T04:26:02;100302.94;;;6.43;96.48
15646;BME280;7922;43.622;1.476;2023-04-02T04:31:09;100323.69;;;6.58;96.81
15646;BME280;7922;43.622;1.476;2023-04-02T04:33:41;100455.50;;;7.34;96.51
15646;BME280;7922;43.622;1.476;2023-04-02T04:36:39;100460.63;;;7.40;96.50
15646;BME280;7922;43.622;1.476;2023-04-02T04:39:13;100389.53;;;6.98;96.34
15646;BME280;7922;43.622;1.476;2023-04-02T04:41:41;100404.31;;;7.04;96.38
15646;BME280;7922;43.622;1.476;2023-04-02T04:46:45;100406.06;;;7.05;96.61
15646;BME280;7922;43.622;1.476;2023-04-02T04:49:22;100463.13;;;7.46;96.73
15646;BME280;7922;43.622;1.476;2023-04-02T04:54:24;100429.50;;;7.17;96.44
15646;BME280;7922;43.622;1.476;2023-04-02T04:56:54;100468.34;;;7.50;96.64
15646;BME280;7922;43.622;1.476;2023-04-02T04:59:24;100455.34;;;7.40;96.86
15646;BME280;7922;43.622;1.476;2023-04-02T05:01:59;100428.59;;;7.20;96.64
15646;BME280;7922;43.622;1.476;2023-04-02T05:04:37;100427.69;;;7.21;96.88
15646;BME280;7922;43.622;1.476;2023-04-02T05:12:31;100482.44;;;7.47;96.88
15646;BME280;7922;43.622;1.476;2023-04-02T05:15:16;100462.63;;;7.29;97.16
15646;BME280;7922;43.622;1.476;2023-04-02T05:20:39;100405.44;;;6.92;97.99
15646;BME280;7922;43.622;1.476;2023-04-02T05:25:51;100322.22;;;6.43;97.63
15646;BME280;7922;43.622;1.476;2023-04-02T05:28:31;100391.75;;;6.77;98.00
15646;BME280;7922;43.622;1.476;2023-04-02T05:31:04;100333.63;;;6.42;97.47
15646;BME280;7922;43.622;1.476;2023-04-02T05:33:32;100464.59;;;7.19;97.90
15646;BME280;7922;43.622;1.476;2023-04-02T05:38:36;100448.97;;;7.10;97.52
15646;BME280;7922;43.622;1.476;2023-04-02T05:43:29;100438.44;;;7.12;97.70
15646;BME280;7922;43.622;1.476;2023-04-02T05:45:58;100427.03;;;7.10;97.41
15646;BME280;7922;43.622;1.476;2023-04-02T05:48:32;100374.97;;;6.81;97.12
15646;BME280;7922;43.622;1.476;2023-04-02T05:50:59;100399.25;;;6.95;97.63
15646;BME280;7922;43.622;1.476;2023-04-02T05:53:34;100458.25;;;7.28;97.72
15646;BME280;7922;43.622;1.476;2023-04-02T05:58:53;100518.88;;;7.68;97.37
15646;BME280;7922;43.622;1.476;2023-04-02T06:06:55;100495.63;;;7.48;96.93
15646;BME280;7922;43.622;1.476;2023-04-02T06:09:35;100391.25;;;6.99;97.01
15646;BME280;7922;43.622;1.476;2023-04-02T06:12:41;100537.00;;;7.85;97.62
15646;BME280;7922;43.622;1.476;2023-04-02T06:15:13;100514.41;;;7.72;97.25
15646;BME280;7922;43.622;1.476;2023-04-02T06:17:57;100377.38;;;6.91;97.30
15646;BME280;7922;43.622;1.476;2023-04-02T06:20:23;100406.06;;;7.05;97.21
15646;BME280;7922;43.622;1.476;2023-04-02T06:22:58;100490.91;;;7.63;97.73
15646;BME280;7922;43.622;1.476;2023-04-02T06:25:29;100553.31;;;8.01;97.48
15646;BME280;7922;43.622;1.476;2023-04-02T06:27:57;100530.63;;;7.94;97.56
15646;BME280;7922;43.622;1.476;2023-04-02T06:30:27;100535.84;;;7.97;97.38
15646;BME280;7922;43.622;1.476;2023-04-02T06:32:55;100527.25;;;7.89;96.76
15646;BME280;7922;43.622;1.476;2023-04-02T06:35:21;100535.72;;;8.03;96.81
15646;BME280;7922;43.622;1.476;2023-04-02T06:37:48;100539.78;;;8.16;96.63
15646;BME280;7922;43.622;1.476;2023-04-02T06:40:46;100555.53;;;8.19;96.93
15646;BME280;7922;43.622;1.476;2023-04-02T06:43:33;100553.84;;;8.17;96.53
15646;BME280;7922;43.622;1.476;2023-04-02T06:46:25;100565.13;;;8.24;96.42
15646;BME280;7922;43.622;1.476;2023-04-02T06:48:49;100392.28;;;7.33;96.30
15646;BME280;7922;43.622;1.476;2023-04-02T06:51:19;100475.41;;;7.86;96.27
15646;BME280;7922;43.622;1.476;2023-04-02T06:53:48;100332.16;;;7.13;95.37
15646;BME280;7922;43.622;1.476;2023-04-02T06:56:43;100519.63;;;8.51;94.71
15646;BME280;7922;43.622;1.476;2023-04-02T06:59:09;100533.22;;;8.70;94.08
15646;BME280;7922;43.622;1.476;2023-04-02T07:01:40;100071.81;;;5.84;93.19
15646;BME280;7922;43.622;1.476;2023-04-02T07:04:07;100540.13;;;8.76;94.01
15646;BME280;7922;43.622;1.476;2023-04-02T07:06:32;100532.69;;;8.90;93.38
15646;BME280;7922;43.622;1.476;2023-04-02T07:08:58;100494.16;;;8.83;92.47
15646;BME280;7922;43.622;1.476;2023-04-02T07:11:23;100490.09;;;8.70;92.10
15646;BME280;7922;43.622;1.476;2023-04-02T07:13:49;100533.44;;;8.95;92.17
15646;BME280;7922;43.622;1.476;2023-04-02T07:16:19;100562.41;;;9.31;91.75
15646;BME280;7922;43.622;1.476;2023-04-02T07:18:45;100563.66;;;9.18;91.99
15646;BME280;7922;43.622;1.476;2023-04-02T07:21:11;100411.44;;;8.48;91.62
15646;BME280;7922;43.622;1.476;2023-04-02T07:23:37;100528.63;;;9.09;91.11
15646;BME280;7922;43.622;1.476;2023-04-02T07:26:04;100557.75;;;9.40;91.04
15646;BME280;7922;43.622;1.476;2023-04-02T07:28:29;100492.63;;;9.05;90.21
15646;BME280;7922;43.622;1.476;2023-04-02T07:30:55;100386.03;;;8.44;90.87
15646;BME280;7922;43.622;1.476;2023-04-02T07:33:23;100561.72;;;9.55;90.58
15646;BME280;7922;43.622;1.476;2023-04-02T07:35:50;100562.03;;;9.45;90.64
15646;BME280;7922;43.622;1.476;2023-04-02T07:38:15;100521.97;;;9.27;90.45
15646;BME280;7922;43.622;1.476;2023-04-02T07:40:40;100419.22;;;8.53;90.37
15646;BME280;7922;43.622;1.476;2023-04-02T07:43:06;100490.16;;;8.99;89.44
15646;BME280;7922;43.622;1.476;2023-04-02T07:45:32;100507.19;;;9.20;89.85
15646;BME280;7922;43.622;1.476;2023-04-02T07:48:01;100556.19;;;9.32;89.84
15646;BME280;7922;43.622;1.476;2023-04-02T07:50:27;100341.09;;;8.13;90.12
15646;BME280;7922;43.622;1.476;2023-04-02T07:52:53;100529.47;;;9.11;90.07
15646;BME280;7922;43.622;1.476;2023-04-02T07:55:18;100510.34;;;9.02;90.11
15646;BME280;7922;43.622;1.476;2023-04-02T07:57:49;100500.88;;;8.95;90.23
15646;BME280;7922;43.622;1.476;2023-04-02T08:00:16;100519.88;;;9.07;90.34
15646;BME280;7922;43.622;1.476;2023-04-02T08:02:41;100587.38;;;9.52;89.74
15646;BME280;7922;43.622;1.476;2023-04-02T08:05:07;100440.75;;;8.72;89.85
15646;BME280;7922;43.622;1.476;2023-04-02T08:07:33;100504.19;;;9.32;89.12
15646;BME280;7922;43.622;1.476;2023-04-02T08:09:59;100503.19;;;9.36;89.20
15646;BME280;7922;43.622;1.476;2023-04-02T08:12:24;100486.53;;;9.33;88.70
15646;BME280;7922;43.622;1.476;2023-04-02T08:14:49;100546.41;;;9.67;87.63
15646;BME280;7922;43.622;1.476;2023-04-02T08:17:15;100569.81;;;9.79;87.75
15646;BME280;7922;43.622;1.476;2023-04-02T08:19:40;100379.56;;;8.87;87.45
15646;BME280;7922;43.622;1.476;2023-04-02T08:22:05;100570.03;;;10.02;87.06
15646;BME280;7922;43.622;1.476;2023-04-02T08:24:31;100442.91;;;9.20;86.77
15646;BME280;7922;43.622;1.476;2023-04-02T08:26:56;100621.47;;;10.22;87.22
15646;BME280;7922;43.622;1.476;2023-04-02T08:29:21;100629.69;;;10.12;87.37
15646;BME280;7922;43.622;1.476;2023-04-02T08:31:47;100564.50;;;9.80;87.80
15646;BME280;7922;43.622;1.476;2023-04-02T08:34:12;100407.69;;;8.88;87.59
15646;BME280;7922;43.622;1.476;2023-04-02T08:36:40;100619.75;;;10.21;87.67
15646;BME280;7922;43.622;1.476;2023-04-02T08:39:06;100617.78;;;10.27;86.66
15646;BME280;7922;43.622;1.476;2023-04-02T08:41:37;100399.75;;;9.19;86.20
15646;BME280;7922;43.622;1.476;2023-04-02T08:44:11;100625.47;;;10.36;86.26
15646;BME280;7922;43.622;1.476;2023-04-02T08:46:50;100448.91;;;9.25;86.52
15646;BME280;7922;43.622;1.476;2023-04-02T08:49:31;100527.59;;;10.04;85.70
15646;BME280;7922;43.622;1.476;2023-04-02T08:51:59;100605.00;;;10.12;86.22
15646;BME280;7922;43.622;1.476;2023-04-02T08:54:27;100629.31;;;10.26;86.00
15646;BME280;7922;43.622;1.476;2023-04-02T08:57:53;100640.78;;;10.55;85.75
15646;BME280;7922;43.622;1.476;2023-04-02T08:59:59;100615.69;;;10.39;86.10
15646;BME280;7922;43.622;1.476;2023-04-02T09:02:49;100618.22;;;10.70;84.05
15646;BME280;7922;43.622;1.476;2023-04-02T09:05:22;100623.63;;;10.93;82.98
15646;BME280;7922;43.622;1.476;2023-04-02T09:07:50;100552.22;;;10.62;82.94
15646;BME280;7922;43.622;1.476;2023-04-02T09:10:17;100551.28;;;10.65;82.55
15646;BME280;7922;43.622;1.476;2023-04-02T09:12:46;100628.88;;;10.95;82.12
15646;BME280;7922;43.622;1.476;2023-04-02T09:15:35;100637.50;;;11.01;82.66
15646;BME280;7922;43.622;1.476;2023-04-02T09:18:14;100602.97;;;10.76;82.37
15646;BME280;7922;43.622;1.476;2023-04-02T09:20:41;100196.97;;;8.40;81.87
15646;BME280;7922;43.622;1.476;2023-04-02T09:23:17;100470.56;;;9.67;82.39
15646;BME280;7922;43.622;1.476;2023-04-02T09:25:48;100482.28;;;9.86;82.64
15646;BME280;7922;43.622;1.476;2023-04-02T09:28:14;100597.06;;;10.95;81.31
15646;BME280;7922;43.622;1.476;2023-04-02T09:33:10;100573.56;;;10.84;81.22
15646;BME280;7922;43.622;1.476;2023-04-02T09:38:25;100469.78;;;10.18;82.08
15646;BME280;7922;43.622;1.476;2023-04-02T09:43:24;100597.28;;;10.62;84.61
15646;BME280;7922;43.622;1.476;2023-04-02T09:48:42;100581.22;;;11.18;81.79
15646;BME280;7922;43.622;1.476;2023-04-02T09:53:38;100651.06;;;12.39;78.09
15646;BME280;7922;43.622;1.476;2023-04-02T09:56:17;100616.56;;;13.04;76.01
15646;BME280;7922;43.622;1.476;2023-04-02T09:58:44;100574.09;;;11.92;77.25
15646;BME280;7922;43.622;1.476;2023-04-02T10:01:34;100617.63;;;11.13;82.13
15646;BME280;7922;43.622;1.476;2023-04-02T10:04:01;100605.97;;;10.66;83.32
15646;BME280;7922;43.622;1.476;2023-04-02T10:06:28;100454.50;;;9.73;83.79
15646;BME280;7922;43.622;1.476;2023-04-02T10:08:54;100564.81;;;10.55;85.00
15646;BME280;7922;43.622;1.476;2023-04-02T10:11:32;100665.81;;;10.99;86.36
15646;BME280;7922;43.622;1.476;2023-04-02T10:14:12;100652.88;;;10.90;85.11
15646;BME280;7922;43.622;1.476;2023-04-02T10:16:53;100522.34;;;10.32;84.77
15646;BME280;7922;43.622;1.476;2023-04-02T10:19:27;100665.59;;;11.32;84.08
15646;BME280;7922;43.622;1.476;2023-04-02T10:21:55;100645.88;;;11.14;81.31
15646;BME280;7922;43.622;1.476;2023-04-02T10:24:22;100514.94;;;10.68;81.91
15646;BME280;7922;43.622;1.476;2023-04-02T10:27:10;100469.78;;;10.71;82.12
15646;BME280;7922;43.622;1.476;2023-04-02T10:30:15;100665.09;;;12.19;78.44
15646;BME280;7922;43.622;1.476;2023-04-02T10:40:47;100639.72;;;10.60;85.69
15646;BME280;7922;43.622;1.476;2023-04-02T10:46:29;100521.81;;;10.99;81.53
15646;BME280;7922;43.622;1.476;2023-04-02T10:49:24;100676.59;;;11.96;81.59
15646;BME280;7922;43.622;1.476;2023-04-02T10:51:58;100676.78;;;12.15;79.78
15646;BME280;7922;43.622;1.476;2023-04-02T10:54:48;100553.53;;;11.50;79.55
15646;BME280;7922;43.622;1.476;2023-04-02T10:59:47;100472.28;;;10.76;78.24
15646;BME280;7922;43.622;1.476;2023-04-02T11:02:27;100641.47;;;12.13;79.79
15646;BME280;7922;43.622;1.476;2023-04-02T11:04:55;100494.94;;;10.84;79.56
15646;BME280;7922;43.622;1.476;2023-04-02T11:07:24;100634.41;;;11.64;81.32
15646;BME280;7922;43.622;1.476;2023-04-02T11:09:54;100651.78;;;11.47;82.59
15646;BME280;7922;43.622;1.476;2023-04-02T11:12:42;100614.50;;;11.52;81.96
15646;BME280;7922;43.622;1.476;2023-04-02T11:15:15;100618.84;;;11.29;79.45
15646;BME280;7922;43.622;1.476;2023-04-02T11:17:43;100667.88;;;11.93;80.24
15646;BME280;7922;43.622;1.476;2023-04-02T11:20:54;100664.34;;;12.39;78.21
15646;BME280;7922;43.622;1.476;2023-04-02T11:23:20;100538.06;;;11.62;77.78
15646;BME280;7922;43.622;1.476;2023-04-02T11:25:46;100500.47;;;11.27;77.85
15646;BME280;7922;43.622;1.476;2023-04-02T11:28:32;100684.00;;;11.88;79.33
15646;BME280;7922;43.622;1.476;2023-04-02T11:30:57;100626.81;;;11.29;80.91
15646;BME280;7922;43.622;1.476;2023-04-02T11:35:54;100656.13;;;11.75;79.02
15646;BME280;7922;43.622;1.476;2023-04-02T11:40:51;100677.53;;;12.19;78.64
15646;BME280;7922;43.622;1.476;2023-04-02T11:45:59;100651.03;;;11.69;77.37
15646;BME280;7922;43.622;1.476;2023-04-02T11:48:34;100496.44;;;10.67;76.84
15646;BME280;7922;43.622;1.476;2023-04-02T11:50:59;100674.75;;;11.73;77.11
15646;BME280;7922;43.622;1.476;2023-04-02T11:53:30;100699.91;;;11.88;77.21
15646;BME280;7922;43.622;1.476;2023-04-02T12:01:28;100690.75;;;12.66;74.65
15646;BME280;7922;43.622;1.476;2023-04-02T12:06:51;100680.50;;;13.43;71.24
15646;BME280;7922;43.622;1.476;2023-04-02T12:11:57;100646.22;;;13.15;71.85
15646;BME280;7922;43.622;1.476;2023-04-02T12:16:55;100691.81;;;12.84;71.39
15646;BME280;7922;43.622;1.476;2023-04-02T12:19:22;100624.97;;;12.49;70.34
15646;BME280;7922;43.622;1.476;2023-04-02T12:21:47;100538.09;;;11.85;73.36
15646;BME280;7922;43.622;1.476;2023-04-02T12:24:21;100629.84;;;11.19;81.60
15646;BME280;7922;43.622;1.476;2023-04-02T12:26:47;100721.91;;;11.14;83.94
15646;BME280;7922;43.622;1.476;2023-04-02T12:29:26;100698.03;;;10.87;80.42
15646;BME280;7922;43.622;1.476;2023-04-02T12:31:54;100539.16;;;9.42;81.44
15646;BME280;7922;43.622;1.476;2023-04-02T12:34:21;100565.38;;;9.50;86.27
15646;BME280;7922;43.622;1.476;2023-04-02T12:36:58;100660.50;;;10.15;87.22
15646;BME280;7922;43.622;1.476;2023-04-02T12:39:24;100577.91;;;10.04;87.88
15646;BME280;7922;43.622;1.476;2023-04-02T12:41:50;100630.69;;;10.66;87.33
15646;BME280;7922;43.622;1.476;2023-04-02T12:44:18;100587.59;;;10.88;86.76
15646;BME280;7922;43.622;1.476;2023-04-02T12:46:44;100628.13;;;11.66;86.75
15646;BME280;7922;43.622;1.476;2023-04-02T12:51:46;100604.94;;;11.71;83.03
15646;BME280;7922;43.622;1.476;2023-04-02T12:54:14;100467.81;;;11.01;81.93
15646;BME280;7922;43.622;1.476;2023-04-02T12:56:40;100666.78;;;12.22;82.33
15646;BME280;7922;43.622;1.476;2023-04-02T12:59:28;100663.63;;;12.58;80.67
15646;BME280;7922;43.622;1.476;2023-04-02T13:01:58;100537.88;;;12.35;77.23
15646;BME280;7922;43.622;1.476;2023-04-02T13:04:24;100540.19;;;12.65;75.61
15646;BME280;7922;43.622;1.476;2023-04-02T13:06:51;100620.16;;;12.81;69.83
15646;BME280;7922;43.622;1.476;2023-04-02T13:09:29;100599.97;;;12.55;73.34
15646;BME280;7922;43.622;1.476;2023-04-02T13:11:55;100518.78;;;12.03;73.31
15646;BME280;7922;43.622;1.476;2023-04-02T13:14:22;100583.88;;;12.14;74.56
15646;BME280;7922;43.622;1.476;2023-04-02T13:16:48;100498.34;;;11.82;73.47
15646;BME280;7922;43.622;1.476;2023-04-02T13:21:42;100625.16;;;12.66;70.22
15646;BME280;7922;43.622;1.476;2023-04-02T13:24:36;100687.22;;;13.31;69.34
15646;BME280;7922;43.622;1.476;2023-04-02T13:27:02;100649.75;;;13.15;67.25
15646;BME280;7922;43.622;1.476;2023-04-02T13:29:32;100627.13;;;13.05;66.69
15646;BME280;7922;43.622;1.476;2023-04-02T13:32:03;100531.56;;;12.80;66.23
15646;BME280;7922;43.622;1.476;2023-04-02T13:34:29;100674.84;;;13.91;63.84
15646;BME280;7922;43.622;1.476;2023-04-02T13:36:54;100532.75;;;13.34;64.20
15646;BME280;7922;43.622;1.476;2023-04-02T13:39:20;100511.81;;;13.27;64.63
15646;BME280;7922;43.622;1.476;2023-04-02T13:41:48;100572.00;;;12.66;64.25
15646;BME280;7922;43.622;1.476;2023-04-02T13:44:19;100575.50;;;12.46;65.22
15646;BME280;7922;43.622;1.476;2023-04-02T13:46:45;100691.31;;;12.96;68.96
15646;BME280;7922;43.622;1.476;2023-04-02T13:49:11;100661.38;;;12.25;74.19
15646;BME280;7922;43.622;1.476;2023-04-02T13:51:40;100537.16;;;11.14;78.76
15646;BME280;7922;43.622;1.476;2023-04-02T13:54:09;100648.38;;;11.69;79.73
15646;BME280;7922;43.622;1.476;2023-04-02T13:56:36;100610.84;;;11.54;80.20
15646;BME280;7922;43.622;1.476;2023-04-02T13:59:01;100623.97;;;11.34;81.42
15646;BME280;7922;43.622;1.476;2023-04-02T14:01:27;100580.63;;;11.10;81.26
15646;BME280;7922;43.622;1.476;2023-04-02T14:03:53;100619.91;;;11.49;78.92
15646;BME280;7922;43.622;1.476;2023-04-02T14:14:43;100524.06;;;11.09;79.39
15646;BME280;7922;43.622;1.476;2023-04-02T14:20:41;100703.28;;;12.17;79.63
15646;BME280;7922;43.622;1.476;2023-04-02T14:26:03;100699.34;;;13.16;77.85
15646;BME280;7922;43.622;1.476;2023-04-02T14:31:31;100488.59;;;12.28;74.37
15646;BME280;7922;43.622;1.476;2023-04-02T14:41:46;100682.97;;;13.68;68.00
15646;BME280;7922;43.622;1.476;2023-04-02T14:44:17;100519.06;;;12.62;67.66
15646;BME280;7922;43.622;1.476;2023-04-02T14:46:44;100689.63;;;13.58;67.29
15646;BME280;7922;43.622;1.476;2023-04-02T14:49:28;100693.44;;;13.52;67.38
15646;BME280;7922;43.622;1.476;2023-04-02T14:52:02;100579.53;;;13.40;65.89
15646;BME280;7922;43.622;1.476;2023-04-02T14:57:09;100533.34;;;13.20;63.89
15646;BME280;7922;43.622;1.476;2023-04-02T15:00:03;100657.16;;;14.09;63.60
15646;BME280;7922;43.622;1.476;2023-04-02T15:02:49;100517.75;;;13.33;63.66
15646;BME280;7922;43.622;1.476;2023-04-02T15:05:39;100606.31;;;13.95;62.83
15646;BME280;7922;43.622;1.476;2023-04-02T15:08:11;100625.00;;;13.93;63.09
15646;BME280;7922;43.622;1.476;2023-04-02T15:13:30;100490.88;;;12.78;63.74
15646;BME280;7922;43.622;1.476;2023-04-02T15:16:24;100638.72;;;13.65;64.94
15646;BME280;7922;43.622;1.476;2023-04-02T15:19:01;100634.34;;;13.01;65.46
15646;BME280;7922;43.622;1.476;2023-04-02T15:32:11;100649.06;;;10.72;84.31
15646;BME280;7922;43.622;1.476;2023-04-02T15:35:07;100668.53;;;10.98;84.27
15646;BME280;7922;43.622;1.476;2023-04-02T15:38:00;100669.47;;;10.97;86.06
15646;BME280;7922;43.622;1.476;2023-04-02T15:40:32;100671.28;;;10.95;86.55
15646;BME280;7922;43.622;1.476;2023-04-02T15:45:43;100581.78;;;10.50;87.00
15646;BME280;7922;43.622;1.476;2023-04-02T15:48:34;100664.56;;;11.11;86.97
15646;BME280;7922;43.622;1.476;2023-04-02T15:56:19;100607.19;;;10.82;85.81
15646;BME280;7922;43.622;1.476;2023-04-02T16:01:58;100688.06;;;11.47;86.53
15646;BME280;7922;43.622;1.476;2023-04-02T16:07:17;100693.28;;;11.50;84.72
15646;BME280;7922;43.622;1.476;2023-04-02T16:09:58;100669.72;;;11.41;82.70
15646;BME280;7922;43.622;1.476;2023-04-02T16:12:28;100610.13;;;11.01;81.83
15646;BME280;7922;43.622;1.476;2023-04-02T16:14:58;100658.72;;;11.26;83.30
15646;BME280;7922;43.622;1.476;2023-04-02T16:17:32;100535.00;;;10.49;83.65
15646;BME280;7922;43.622;1.476;2023-04-02T16:20:22;100628.06;;;11.18;83.27
15646;BME280;7922;43.622;1.476;2023-04-02T16:23:13;100650.50;;;11.34;83.38